Rechercher aéroport 
image banner adimage banner adimage banner ad
image banner ad

54CA - Riverside Community Hospital

Situé à Riverside, United States

ICAO - 54CA, IATA -

Données fournies par Airmate  

Information générale

Coordonnées: N33°58'39" W117°22'54"
Élévation : 853 feet MSL.
Variation magnétique : 12° East
Voir autres Aéroports à California

Données opérationnelles

Special qualification required
Heure actuelle UTC:
Heure actuelle locale:
Météo à : KRAL - Riverside Muni ( 6 km )
METAR: KRAL 231453Z 00000KT 10SM FEW100 22/10 A2993 RMK AO2 SLP120 T02220100 53003
Voir NOTAMs / SUP AIP / TFR affectant cet aéroport [VIEW]
Fréquences de communication: [VIEW]

Pistes:

Coordonnées de l'aéroport

Adresse: Riverside United States

Vue satellite de 54CA